createdAt,value
2022-11-03T00:02:12.616Z,18.80
2022-11-03T00:04:39.379Z,18.80
2022-11-03T00:07:06.017Z,18.80
2022-11-03T00:09:32.653Z,18.80
2022-11-03T00:11:59.277Z,18.80
2022-11-03T00:14:25.928Z,18.80
2022-11-03T00:16:52.558Z,18.80
2022-11-03T00:19:19.270Z,18.80
2022-11-03T00:21:46.157Z,18.80
2022-11-03T00:24:12.852Z,18.80
2022-11-03T00:26:39.674Z,18.80
2022-11-03T00:29:08.995Z,18.70
2022-11-03T00:31:36.632Z,18.70
2022-11-03T00:34:03.627Z,18.70
2022-11-03T00:36:31.569Z,18.70
2022-11-03T00:38:58.350Z,18.80
2022-11-03T00:41:25.708Z,18.70
2022-11-03T00:43:52.401Z,18.70
2022-11-03T00:46:20.273Z,18.70
2022-11-03T00:48:47.104Z,18.70
2022-11-03T00:51:18.121Z,18.70
2022-11-03T00:53:48.900Z,18.70
2022-11-03T00:56:16.937Z,18.70
2022-11-03T00:58:43.963Z,18.70
2022-11-03T01:01:12.209Z,18.70
2022-11-03T01:03:39.742Z,18.70
2022-11-03T01:06:26.212Z,18.70
2022-11-03T01:08:52.984Z,18.70
2022-11-03T01:11:39.928Z,18.70
2022-11-03T01:14:07.062Z,18.70
2022-11-03T01:16:33.880Z,18.70
2022-11-03T01:19:00.531Z,18.70
2022-11-03T01:21:27.188Z,18.70
2022-11-03T01:23:53.827Z,18.70
2022-11-03T01:26:20.485Z,18.70
2022-11-03T01:28:47.734Z,18.70
2022-11-03T01:31:14.358Z,18.70
2022-11-03T01:33:41.213Z,18.70
2022-11-03T01:36:08.553Z,18.70
2022-11-03T01:38:36.177Z,18.70
2022-11-03T01:41:03.998Z,18.70
2022-11-03T01:43:32.277Z,18.60
2022-11-03T01:46:04.788Z,18.60
2022-11-03T01:48:32.294Z,18.70
2022-11-03T01:50:59.393Z,18.60
2022-11-03T01:53:26.674Z,18.70
2022-11-03T01:55:54.706Z,18.60
2022-11-03T01:58:23.684Z,18.70
2022-11-03T02:00:52.286Z,18.60
2022-11-03T02:03:19.665Z,18.60
2022-11-03T02:05:47.607Z,18.60
2022-11-03T02:08:16.204Z,18.60
2022-11-03T02:10:43.139Z,18.60
2022-11-03T02:13:18.192Z,18.60
2022-11-03T02:15:46.317Z,18.60
2022-11-03T02:18:13.146Z,18.60
2022-11-03T02:20:40.103Z,18.60
2022-11-03T02:23:20.549Z,18.60
2022-11-03T02:25:54.709Z,18.60
2022-11-03T02:28:23.244Z,18.70
2022-11-03T02:31:04.123Z,18.60
2022-11-03T02:33:47.054Z,18.60
2022-11-03T02:36:25.965Z,18.60
2022-11-03T02:39:14.436Z,18.60
2022-11-03T02:41:41.918Z,18.60
2022-11-03T02:44:13.484Z,18.60
2022-11-03T02:46:41.140Z,18.60
2022-11-03T02:49:07.793Z,18.60
2022-11-03T02:51:35.007Z,18.60
2022-11-03T02:54:11.735Z,18.60
2022-11-03T02:56:43.012Z,18.60
2022-11-03T02:59:11.886Z,18.50
2022-11-03T03:01:49.618Z,18.60
2022-11-03T03:04:28.304Z,18.60
2022-11-03T03:06:59.261Z,18.60
2022-11-03T03:09:29.306Z,18.60
2022-11-03T03:11:58.564Z,18.50
2022-11-03T03:14:27.642Z,18.50
2022-11-03T03:17:00.670Z,18.50
2022-11-03T03:19:45.914Z,18.60
2022-11-03T03:22:16.651Z,18.50
2022-11-03T03:24:55.157Z,18.50
2022-11-03T03:27:23.564Z,18.50
2022-11-03T03:29:52.702Z,18.60
2022-11-03T03:32:21.223Z,18.50
2022-11-03T03:34:48.848Z,18.50
2022-11-03T03:37:16.306Z,18.50
2022-11-03T03:39:45.454Z,18.50
2022-11-03T03:42:14.164Z,18.50
2022-11-03T03:44:41.717Z,18.50
2022-11-03T03:47:17.606Z,18.50
2022-11-03T03:49:44.269Z,18.50
2022-11-03T03:52:11.052Z,18.60
2022-11-03T03:54:37.688Z,18.50
2022-11-03T03:57:05.597Z,18.60
2022-11-03T03:59:32.277Z,18.50
2022-11-03T04:01:59.261Z,18.50
2022-11-03T04:04:26.045Z,18.50
2022-11-03T04:07:12.636Z,18.50
2022-11-03T04:09:39.289Z,18.50
2022-11-03T04:12:24.567Z,18.50
2022-11-03T04:15:09.729Z,18.50
2022-11-03T04:17:55.015Z,18.50
2022-11-03T04:20:40.084Z,18.50
2022-11-03T04:23:06.708Z,18.50
2022-11-03T04:25:34.488Z,18.50
2022-11-03T04:28:01.597Z,18.50
2022-11-03T04:30:28.240Z,18.50
2022-11-03T04:32:54.850Z,18.50
2022-11-03T04:35:25.405Z,18.50
2022-11-03T04:37:55.601Z,18.50
2022-11-03T04:40:22.403Z,18.50
2022-11-03T04:42:49.261Z,18.50
2022-11-03T04:45:25.395Z,18.50
2022-11-03T04:47:52.908Z,18.50
2022-11-03T04:50:20.653Z,18.50
2022-11-03T04:52:48.369Z,18.50
2022-11-03T04:55:16.088Z,18.60
2022-11-03T04:57:43.277Z,18.60
2022-11-03T05:00:17.853Z,18.60
2022-11-03T05:02:46.611Z,18.60
2022-11-03T05:05:16.821Z,18.60
2022-11-03T05:07:43.695Z,18.70
2022-11-03T05:10:13.110Z,18.70
2022-11-03T05:12:39.736Z,18.70
2022-11-03T05:15:08.840Z,18.70
2022-11-03T05:17:37.282Z,18.70
2022-11-03T05:20:04.145Z,18.70
2022-11-03T05:22:34.137Z,18.70
2022-11-03T05:25:02.294Z,18.60
2022-11-03T05:27:28.930Z,18.70
2022-11-03T05:29:59.596Z,18.80
2022-11-03T05:32:28.656Z,18.90
2022-11-03T05:34:55.886Z,18.90
2022-11-03T05:37:30.890Z,19.00
2022-11-03T05:39:59.196Z,19.00
2022-11-03T05:42:34.423Z,19.10
2022-11-03T05:45:02.755Z,19.10
2022-11-03T05:47:39.582Z,19.10
2022-11-03T05:50:26.057Z,19.10
2022-11-03T05:53:05.132Z,19.10
2022-11-03T05:55:33.176Z,19.10
2022-11-03T05:58:04.891Z,19.10
2022-11-03T06:00:33.487Z,19.00
2022-11-03T06:03:00.314Z,19.10
2022-11-03T06:05:27.927Z,19.00
2022-11-03T06:07:55.573Z,19.00
2022-11-03T06:10:30.884Z,19.00
2022-11-03T06:13:36.649Z,19.00
2022-11-03T06:16:05.700Z,18.90
2022-11-03T06:18:36.725Z,19.00
2022-11-03T06:21:07.444Z,18.90
2022-11-03T06:23:34.938Z,18.90
2022-11-03T06:26:02.709Z,18.90
2022-11-03T06:28:31.397Z,18.90
2022-11-03T06:30:58.026Z,18.80
2022-11-03T06:33:29.696Z,18.80
2022-11-03T06:36:02.053Z,18.80
2022-11-03T06:38:30.171Z,18.80
2022-11-03T06:40:57.132Z,18.80
2022-11-03T06:43:30.306Z,18.80
2022-11-03T06:46:01.170Z,18.90
2022-11-03T06:48:29.050Z,18.90
2022-11-03T06:50:56.432Z,18.90
2022-11-03T06:53:27.593Z,18.90
2022-11-03T06:55:54.668Z,18.90
2022-11-03T06:58:29.024Z,18.90
2022-11-03T07:01:02.745Z,18.90
2022-11-03T07:03:35.125Z,18.90
2022-11-03T07:06:04.829Z,18.90
2022-11-03T07:08:34.885Z,18.90
2022-11-03T07:11:04.142Z,18.90
2022-11-03T07:13:32.605Z,18.80
2022-11-03T07:15:59.470Z,18.90
2022-11-03T07:18:28.822Z,18.90
2022-11-03T07:20:55.808Z,18.90
2022-11-03T07:23:24.509Z,18.90
2022-11-03T07:25:54.486Z,18.90
2022-11-03T07:28:22.966Z,19.00
2022-11-03T07:30:49.653Z,19.00
2022-11-03T07:33:19.312Z,19.00
2022-11-03T07:36:13.721Z,19.00
2022-11-03T07:38:33.661Z,19.00
2022-11-03T07:41:00.448Z,19.00
2022-11-03T07:43:34.792Z,19.00
2022-11-03T07:46:02.484Z,19.00
2022-11-03T07:48:46.214Z,18.90
2022-11-03T07:51:15.616Z,18.90
2022-11-03T07:53:43.988Z,18.90
2022-11-03T07:56:15.801Z,18.90
2022-11-03T07:58:42.872Z,18.90
2022-11-03T08:01:24.494Z,18.90
2022-11-03T08:03:51.898Z,18.90
2022-11-03T08:06:19.993Z,18.90
2022-11-03T08:08:46.892Z,18.90
2022-11-03T08:13:40.159Z,18.80
2022-11-03T08:16:06.920Z,18.80
2022-11-03T08:18:33.557Z,18.80
2022-11-03T08:21:01.084Z,18.80
2022-11-03T08:23:28.155Z,18.80
2022-11-03T08:25:55.001Z,18.80
2022-11-03T08:28:21.613Z,18.80
2022-11-03T08:30:48.267Z,18.80
2022-11-03T08:33:14.951Z,18.90
2022-11-03T08:35:41.774Z,18.90
2022-11-03T08:38:08.717Z,18.90
2022-11-03T08:40:35.632Z,18.90
2022-11-03T08:43:03.142Z,18.90
2022-11-03T08:45:30.134Z,18.90
2022-11-03T08:47:57.086Z,18.90
2022-11-03T08:50:24.029Z,18.90
2022-11-03T08:52:50.764Z,18.90
2022-11-03T08:55:17.506Z,19.00
2022-11-03T08:57:44.144Z,18.90
2022-11-03T09:00:11.205Z,18.80
2022-11-03T09:02:37.903Z,18.80
2022-11-03T09:05:05.796Z,18.90
2022-11-03T09:10:21.123Z,18.90
2022-11-03T09:12:49.965Z,18.90
2022-11-03T09:15:16.597Z,19.00
2022-11-03T09:17:45.572Z,18.90
2022-11-03T09:20:12.600Z,19.00
2022-11-03T09:22:39.486Z,19.00
2022-11-03T09:25:06.903Z,19.00
2022-11-03T09:27:33.581Z,19.00
2022-11-03T09:30:12.882Z,19.10
2022-11-03T09:32:40.854Z,18.90
2022-11-03T09:35:09.016Z,18.90
2022-11-03T09:37:36.058Z,18.90
2022-11-03T09:40:04.123Z,19.30
2022-11-03T09:42:31.749Z,18.90
2022-11-03T09:44:58.354Z,18.90
2022-11-03T09:47:29.435Z,18.90
2022-11-03T09:49:56.968Z,19.00
2022-11-03T09:52:24.347Z,18.80
2022-11-03T09:54:55.563Z,18.80
2022-11-03T09:57:22.713Z,18.80
2022-11-03T09:59:50.282Z,18.80
2022-11-03T10:02:36.475Z,18.80
2022-11-03T10:05:08.269Z,18.80
2022-11-03T10:07:37.578Z,18.90
2022-11-03T10:10:04.587Z,18.90
2022-11-03T10:12:36.459Z,18.90
2022-11-03T10:15:03.277Z,18.90
2022-11-03T10:17:30.982Z,19.00
2022-11-03T10:19:58.269Z,19.10
2022-11-03T10:22:24.925Z,19.00
2022-11-03T10:25:11.492Z,19.00
2022-11-03T10:27:38.150Z,19.00
2022-11-03T10:30:07.630Z,19.00
2022-11-03T10:32:34.880Z,19.00
2022-11-03T10:35:02.159Z,19.00
2022-11-03T10:37:29.453Z,19.40
2022-11-03T10:39:57.938Z,19.00
2022-11-03T10:42:35.030Z,18.90
2022-11-03T10:45:10.888Z,18.90
2022-11-03T10:47:37.523Z,19.00
2022-11-03T10:50:16.441Z,18.90
2022-11-03T10:52:43.096Z,18.90
2022-11-03T10:55:11.225Z,18.90
2022-11-03T10:57:38.092Z,18.90
2022-11-03T11:00:05.727Z,18.80
2022-11-03T11:02:33.123Z,18.80
2022-11-03T11:05:01.464Z,19.20
2022-11-03T11:07:39.254Z,18.90
2022-11-03T11:10:18.012Z,18.90
2022-11-03T11:13:03.199Z,18.90
2022-11-03T11:15:50.154Z,19.00
2022-11-03T11:18:29.043Z,19.00
2022-11-03T11:20:56.537Z,19.00
2022-11-03T11:23:29.284Z,19.00
2022-11-03T11:26:14.511Z,19.00
2022-11-03T11:28:42.008Z,19.00
2022-11-03T11:31:37.742Z,19.10
2022-11-03T11:34:10.589Z,19.00
2022-11-03T11:36:37.956Z,19.00
2022-11-03T11:39:25.043Z,19.00
2022-11-03T11:42:10.766Z,19.00
2022-11-03T11:44:43.313Z,19.00
2022-11-03T11:47:23.945Z,18.90
2022-11-03T11:50:05.868Z,18.90
2022-11-03T11:52:41.947Z,18.90
2022-11-03T11:55:18.786Z,18.90
2022-11-03T11:57:46.185Z,18.90
2022-11-03T12:00:24.037Z,18.90
2022-11-03T12:02:51.521Z,18.90
2022-11-03T12:05:22.462Z,19.20
2022-11-03T12:07:49.826Z,19.00
2022-11-03T12:10:17.652Z,19.00
2022-11-03T12:12:44.376Z,19.00
2022-11-03T12:15:29.863Z,19.00
2022-11-03T12:17:56.517Z,19.00
2022-11-03T12:20:36.445Z,19.00
2022-11-03T12:23:03.406Z,19.00
2022-11-03T12:25:35.385Z,19.00
2022-11-03T12:28:02.106Z,19.00
2022-11-03T12:30:28.848Z,19.00
2022-11-03T12:32:55.510Z,19.00
2022-11-03T12:35:22.225Z,19.00
2022-11-03T12:37:48.876Z,19.00
2022-11-03T12:40:15.599Z,19.00
2022-11-03T12:42:42.329Z,19.00
2022-11-03T12:45:09.397Z,18.90
2022-11-03T12:47:36.026Z,18.90
2022-11-03T12:50:02.831Z,18.90
2022-11-03T12:52:29.480Z,18.90
2022-11-03T12:54:56.210Z,18.90
2022-11-03T12:57:22.880Z,19.00
2022-11-03T12:59:51.373Z,19.00
2022-11-03T13:02:18.183Z,19.00
2022-11-03T13:04:44.997Z,19.00
2022-11-03T13:07:11.635Z,19.00
2022-11-03T13:09:38.282Z,19.00
2022-11-03T13:12:23.487Z,19.00
2022-11-03T13:14:50.190Z,19.00
2022-11-03T13:17:16.867Z,19.00
2022-11-03T13:19:43.577Z,19.10
2022-11-03T13:22:11.017Z,19.00
2022-11-03T13:24:37.715Z,19.00
2022-11-03T13:27:04.413Z,19.00
2022-11-03T13:29:35.108Z,19.00
2022-11-03T13:32:03.592Z,19.00
2022-11-03T13:34:30.381Z,19.00
2022-11-03T13:36:57.142Z,19.00
2022-11-03T13:39:23.809Z,18.90
2022-11-03T13:41:50.585Z,19.00
2022-11-03T13:44:17.347Z,18.90
2022-11-03T13:46:44.001Z,18.90
2022-11-03T13:51:57.433Z,19.00
2022-11-03T14:00:01.963Z,19.00
2022-11-03T14:05:18.006Z,19.00
2022-11-03T14:07:45.190Z,19.00
2022-11-03T14:10:11.885Z,19.00
2022-11-03T14:12:38.552Z,19.00
2022-11-03T14:15:06.389Z,19.00
2022-11-03T14:17:33.105Z,19.00
2022-11-03T14:20:04.165Z,19.00
2022-11-03T14:22:32.129Z,19.00
2022-11-03T14:24:59.138Z,19.00
2022-11-03T14:27:26.111Z,19.00
2022-11-03T14:29:52.873Z,19.00
2022-11-03T14:32:20.037Z,19.00
2022-11-03T14:34:47.894Z,19.00
2022-11-03T14:37:15.256Z,19.00
2022-11-03T14:39:42.014Z,18.90
2022-11-03T14:42:15.039Z,18.90
2022-11-03T14:44:42.772Z,18.90
2022-11-03T14:47:10.625Z,18.90
2022-11-03T14:49:37.560Z,18.90
2022-11-03T14:52:05.085Z,19.00
2022-11-03T14:54:31.744Z,19.00
2022-11-03T14:56:58.548Z,19.00
2022-11-03T14:59:25.669Z,19.00
2022-11-03T15:01:52.621Z,19.00
2022-11-03T15:04:19.811Z,19.00
2022-11-03T15:06:46.912Z,19.00
2022-11-03T15:09:16.637Z,19.00
2022-11-03T15:11:43.838Z,19.00
2022-11-03T15:14:11.801Z,19.00
2022-11-03T15:16:38.883Z,19.00
2022-11-03T15:19:06.324Z,19.00
2022-11-03T15:21:32.994Z,19.00
2022-11-03T15:26:46.592Z,19.00
2022-11-03T15:29:13.541Z,19.00
2022-11-03T15:31:46.183Z,19.00
2022-11-03T15:34:14.580Z,19.00
2022-11-03T15:36:41.267Z,19.00
2022-11-03T15:39:07.942Z,19.00
2022-11-03T15:41:34.596Z,19.00
2022-11-03T15:44:01.248Z,19.00
2022-11-03T15:46:27.882Z,19.00
2022-11-03T15:48:56.578Z,19.00
2022-11-03T15:51:23.364Z,19.00
2022-11-03T15:53:54.985Z,19.00
2022-11-03T15:56:24.995Z,19.00
2022-11-03T15:58:51.666Z,19.00
2022-11-03T16:01:18.499Z,19.00
2022-11-03T16:03:45.237Z,19.00
2022-11-03T16:06:11.885Z,19.00
2022-11-03T16:08:38.616Z,19.00
2022-11-03T16:11:05.322Z,19.10
2022-11-03T16:13:31.949Z,19.00
2022-11-03T16:15:58.669Z,19.00
2022-11-03T16:18:25.335Z,19.00
2022-11-03T16:20:52.100Z,19.00
2022-11-03T16:23:18.726Z,19.00
2022-11-03T16:25:45.372Z,19.00
2022-11-03T16:28:12.144Z,19.00
2022-11-03T16:30:38.957Z,18.90
2022-11-03T16:33:05.971Z,18.90
2022-11-03T16:35:32.657Z,18.90
2022-11-03T16:37:59.293Z,18.90
2022-11-03T16:40:25.931Z,18.90
2022-11-03T16:42:52.595Z,18.90
2022-11-03T16:45:20.505Z,19.00
2022-11-03T16:47:47.937Z,19.00
2022-11-03T16:50:16.285Z,19.00
2022-11-03T16:52:43.276Z,19.00
2022-11-03T16:55:11.814Z,19.00
2022-11-03T16:57:39.131Z,19.00
2022-11-03T17:00:06.873Z,19.00
2022-11-03T17:02:33.619Z,19.00
2022-11-03T17:05:00.292Z,19.00
2022-11-03T17:07:26.979Z,19.00
2022-11-03T17:09:53.613Z,19.00
2022-11-03T17:12:20.301Z,19.00
2022-11-03T17:14:49.058Z,19.00
2022-11-03T17:17:17.922Z,19.00
2022-11-03T17:19:44.579Z,18.90
2022-11-03T17:22:11.225Z,18.90
2022-11-03T17:24:37.929Z,18.90
2022-11-03T17:27:24.808Z,18.80
2022-11-03T17:29:56.687Z,18.80
2022-11-03T17:32:24.208Z,18.90
2022-11-03T17:34:52.090Z,18.90
2022-11-03T17:37:19.033Z,18.90
2022-11-03T17:39:45.698Z,18.90
2022-11-03T17:42:25.603Z,19.00
2022-11-03T17:44:53.878Z,19.00
2022-11-03T17:47:20.689Z,19.00
2022-11-03T17:49:47.923Z,19.00
2022-11-03T17:52:23.467Z,19.00
2022-11-03T17:54:55.198Z,19.00
2022-11-03T17:57:22.497Z,19.00
2022-11-03T17:59:50.896Z,18.90
2022-11-03T18:02:25.204Z,18.90
2022-11-03T18:05:03.245Z,18.90
2022-11-03T18:07:29.872Z,18.90
2022-11-03T18:09:56.506Z,18.90
2022-11-03T18:12:44.192Z,18.90
2022-11-03T18:15:13.936Z,18.90
2022-11-03T18:17:40.593Z,18.90
2022-11-03T18:20:36.425Z,18.80
2022-11-03T18:23:12.718Z,18.80
2022-11-03T18:25:39.347Z,18.80
2022-11-03T18:28:06.314Z,18.80
2022-11-03T18:30:33.185Z,18.80
2022-11-03T18:32:59.907Z,18.80
2022-11-03T18:35:28.522Z,18.90
2022-11-03T18:37:55.895Z,18.90
2022-11-03T18:40:22.543Z,18.90
2022-11-03T18:42:49.253Z,18.90
2022-11-03T18:45:17.141Z,18.90
2022-11-03T18:47:44.092Z,19.00
2022-11-03T18:50:15.540Z,18.90
2022-11-03T18:52:44.144Z,19.00
2022-11-03T18:55:12.092Z,19.00
2022-11-03T18:57:39.191Z,19.00
2022-11-03T19:00:07.178Z,19.00
2022-11-03T19:02:33.958Z,19.00
2022-11-03T19:05:00.644Z,19.10
2022-11-03T19:07:31.891Z,19.10
2022-11-03T19:09:59.000Z,19.20
2022-11-03T19:12:25.632Z,19.20
2022-11-03T19:14:52.451Z,19.10
2022-11-03T19:17:23.382Z,19.20
2022-11-03T19:19:51.883Z,19.20
2022-11-03T19:22:20.079Z,19.10
2022-11-03T19:24:46.797Z,19.10
2022-11-03T19:27:18.521Z,19.10
2022-11-03T19:29:45.877Z,19.10
2022-11-03T19:32:33.391Z,19.10
2022-11-03T19:35:01.869Z,19.10
2022-11-03T19:37:34.923Z,19.10
2022-11-03T19:40:02.426Z,19.10
2022-11-03T19:42:29.293Z,19.10
2022-11-03T19:44:59.940Z,19.00
2022-11-03T19:47:31.570Z,19.00
2022-11-03T19:50:00.353Z,19.00
2022-11-03T19:52:28.295Z,19.00
2022-11-03T19:54:55.511Z,19.00
2022-11-03T19:57:22.258Z,19.00
2022-11-03T19:59:49.045Z,19.00
2022-11-03T20:02:15.811Z,19.00
2022-11-03T20:04:46.678Z,18.90
2022-11-03T20:07:14.170Z,18.90
2022-11-03T20:09:41.291Z,18.90
2022-11-03T20:12:08.369Z,18.90
2022-11-03T20:14:35.370Z,18.90
2022-11-03T20:17:10.351Z,19.00
2022-11-03T20:19:37.170Z,19.00
2022-11-03T20:22:04.402Z,19.00
2022-11-03T20:24:31.923Z,19.00
2022-11-03T20:26:59.985Z,19.00
2022-11-03T20:29:29.615Z,19.00
2022-11-03T20:32:00.389Z,19.00
2022-11-03T20:34:27.054Z,19.00
2022-11-03T20:36:53.701Z,19.00
2022-11-03T20:39:20.520Z,19.00
2022-11-03T20:41:48.217Z,19.00
2022-11-03T20:44:15.481Z,19.00
2022-11-03T20:46:42.832Z,19.00
2022-11-03T20:49:09.837Z,19.00
2022-11-03T20:51:41.539Z,19.00
2022-11-03T20:54:18.769Z,19.00
2022-11-03T20:56:46.026Z,19.00
2022-11-03T21:01:45.535Z,19.00
2022-11-03T21:04:16.284Z,19.00
2022-11-03T21:06:43.167Z,19.00
2022-11-03T21:09:13.543Z,19.00
2022-11-03T21:11:40.726Z,18.90
2022-11-03T21:14:27.686Z,18.90
2022-11-03T21:17:13.155Z,19.00
2022-11-03T21:19:58.548Z,18.90
2022-11-03T21:22:52.349Z,18.90
2022-11-03T21:25:21.738Z,18.90
2022-11-03T21:27:49.768Z,18.90
2022-11-03T21:30:16.952Z,18.90
2022-11-03T21:32:44.435Z,18.90
2022-11-03T21:35:15.330Z,18.90
2022-11-03T21:37:41.955Z,18.90
2022-11-03T21:40:08.990Z,18.80
2022-11-03T21:42:54.253Z,18.90
2022-11-03T21:45:21.066Z,18.80
2022-11-03T21:48:13.133Z,18.80
2022-11-03T21:50:40.881Z,18.80
2022-11-03T21:53:08.033Z,18.90
2022-11-03T21:55:35.213Z,18.80
2022-11-03T21:58:02.381Z,18.80
2022-11-03T22:00:29.385Z,18.80
2022-11-03T22:02:56.082Z,18.80
2022-11-03T22:05:22.765Z,18.80
2022-11-03T22:07:49.418Z,18.80
2022-11-03T22:10:16.051Z,18.80
2022-11-03T22:12:42.680Z,18.80
2022-11-03T22:15:28.064Z,18.80
2022-11-03T22:18:04.484Z,18.80
2022-11-03T22:20:49.797Z,18.80
2022-11-03T22:23:36.191Z,18.80
2022-11-03T22:26:21.469Z,18.80
2022-11-03T22:29:08.071Z,18.80
2022-11-03T22:31:40.844Z,18.80
2022-11-03T22:34:26.202Z,18.70
2022-11-03T22:36:52.995Z,18.70
2022-11-03T22:39:38.340Z,18.70
2022-11-03T22:42:23.507Z,18.70
2022-11-03T22:45:08.682Z,18.80
2022-11-03T22:47:35.405Z,18.70
2022-11-03T22:50:03.925Z,18.70
2022-11-03T22:52:30.549Z,18.70
2022-11-03T22:54:57.182Z,18.70
2022-11-03T22:57:23.808Z,18.70
2022-11-03T22:59:50.462Z,18.70
2022-11-03T23:02:17.160Z,18.70
2022-11-03T23:04:45.576Z,18.70
2022-11-03T23:07:12.276Z,18.70
2022-11-03T23:09:38.917Z,18.70
2022-11-03T23:12:05.650Z,18.70
2022-11-03T23:14:51.080Z,18.70
2022-11-03T23:17:17.711Z,18.70
2022-11-03T23:20:02.977Z,18.70
2022-11-03T23:22:29.703Z,18.70
2022-11-03T23:24:59.393Z,18.70
2022-11-03T23:27:26.069Z,18.70
2022-11-03T23:29:52.700Z,18.70
2022-11-03T23:32:19.509Z,18.70
2022-11-03T23:34:46.140Z,18.70
2022-11-03T23:37:12.794Z,18.70
2022-11-03T23:39:39.436Z,18.70
2022-11-03T23:42:06.208Z,18.70
2022-11-03T23:44:52.812Z,18.70
2022-11-03T23:47:38.235Z,18.70
2022-11-03T23:50:05.232Z,18.70
2022-11-03T23:52:31.876Z,18.70
2022-11-03T23:54:58.506Z,18.70
2022-11-03T23:57:43.803Z,18.70
